createdAt,value
2022-10-22T00:01:06.079Z,14.00
2022-10-22T00:03:33.972Z,13.97
2022-10-22T00:06:01.913Z,13.91
2022-10-22T00:08:30.272Z,13.93
2022-10-22T00:10:58.601Z,13.90
2022-10-22T00:13:28.209Z,13.97
2022-10-22T00:15:56.240Z,13.94
2022-10-22T00:18:24.181Z,13.90
2022-10-22T00:20:52.097Z,13.90
2022-10-22T00:23:19.993Z,13.88
2022-10-22T00:25:48.909Z,13.95
2022-10-22T00:28:16.780Z,13.93
2022-10-22T00:30:46.255Z,13.95
2022-10-22T00:33:14.460Z,13.96
2022-10-22T00:35:42.379Z,13.90
2022-10-22T00:38:10.284Z,13.95
2022-10-22T00:40:38.193Z,13.89
2022-10-22T00:43:06.162Z,13.88
2022-10-22T00:45:34.118Z,13.85
2022-10-22T00:48:06.718Z,13.90
2022-10-22T00:50:36.977Z,13.90
2022-10-22T00:53:07.601Z,13.94
2022-10-22T00:55:36.201Z,13.93
2022-10-22T00:58:05.041Z,13.93
2022-10-22T01:00:33.151Z,13.91
2022-10-22T01:03:02.936Z,13.91
2022-10-22T01:05:34.123Z,13.96
2022-10-22T01:08:01.973Z,13.95
2022-10-22T01:10:47.259Z,13.88
2022-10-22T01:13:27.471Z,13.89
2022-10-22T01:16:00.408Z,13.97
2022-10-22T01:18:39.259Z,13.95
2022-10-22T01:21:20.987Z,13.94
2022-10-22T01:24:29.071Z,13.94
2022-10-22T01:27:16.405Z,13.93
2022-10-22T01:29:49.494Z,13.98
2022-10-22T01:32:20.168Z,13.96
2022-10-22T01:34:58.524Z,13.88
2022-10-22T01:37:30.564Z,13.91
2022-10-22T01:40:00.246Z,13.88
2022-10-22T01:42:28.308Z,13.96
2022-10-22T01:44:57.466Z,13.90
2022-10-22T01:47:41.507Z,13.87
2022-10-22T01:50:38.996Z,13.95
2022-10-22T01:53:18.802Z,13.89
2022-10-22T01:55:57.584Z,13.94
2022-10-22T01:58:38.453Z,13.89
2022-10-22T02:01:14.337Z,13.91
2022-10-22T02:03:50.432Z,13.93
2022-10-22T02:06:21.209Z,13.89
2022-10-22T02:08:51.232Z,13.94
2022-10-22T02:11:19.138Z,13.96
2022-10-22T02:13:49.534Z,13.98
2022-10-22T02:16:23.916Z,13.95
2022-10-22T02:18:56.560Z,13.91
2022-10-22T02:21:24.643Z,13.97
2022-10-22T02:23:52.513Z,13.91
2022-10-22T02:26:24.616Z,13.98
2022-10-22T02:28:59.809Z,13.97
2022-10-22T02:31:32.414Z,14.02
2022-10-22T02:34:07.894Z,14.05
2022-10-22T02:36:36.293Z,14.04
2022-10-22T02:39:05.284Z,14.05
2022-10-22T02:41:33.678Z,14.05
2022-10-22T02:44:02.738Z,14.07
2022-10-22T02:46:32.227Z,14.08
2022-10-22T02:49:00.136Z,14.06
2022-10-22T02:51:28.258Z,14.06
2022-10-22T02:53:56.082Z,14.04
2022-10-22T02:56:24.021Z,14.05
2022-10-22T02:58:51.859Z,14.06
2022-10-22T03:01:19.813Z,14.10
2022-10-22T03:03:49.121Z,14.10
2022-10-22T03:06:18.042Z,14.10
2022-10-22T03:08:46.068Z,14.12
2022-10-22T03:11:13.912Z,14.11
2022-10-22T03:13:42.064Z,14.10
2022-10-22T03:16:09.965Z,14.08
2022-10-22T03:18:37.968Z,14.11
2022-10-22T03:21:11.571Z,14.05
2022-10-22T03:23:41.434Z,14.09
2022-10-22T03:26:11.299Z,14.07
2022-10-22T03:28:41.391Z,14.08
2022-10-22T03:31:09.263Z,14.06
2022-10-22T03:33:37.088Z,14.05
2022-10-22T03:36:05.323Z,14.05
2022-10-22T03:38:36.230Z,14.03
2022-10-22T03:41:04.296Z,13.98
2022-10-22T03:43:32.177Z,13.94
2022-10-22T03:46:00.006Z,13.97
2022-10-22T03:48:28.016Z,13.93
2022-10-22T03:50:55.807Z,13.87
2022-10-22T03:53:23.548Z,13.91
2022-10-22T03:55:52.764Z,13.88
2022-10-22T03:58:20.548Z,13.89
2022-10-22T04:00:48.418Z,13.87
2022-10-22T04:03:16.565Z,13.86
2022-10-22T04:05:44.541Z,13.84
2022-10-22T04:08:12.485Z,13.87
2022-10-22T04:10:40.363Z,13.86
2022-10-22T04:13:09.631Z,13.90
2022-10-22T04:15:37.525Z,13.89
2022-10-22T04:18:05.531Z,13.89
2022-10-22T04:20:33.422Z,13.88
2022-10-22T04:23:01.343Z,13.96
2022-10-22T04:25:29.394Z,13.89
2022-10-22T04:27:57.239Z,13.93
2022-10-22T04:30:26.623Z,13.88
2022-10-22T04:32:54.627Z,13.82
2022-10-22T04:35:22.656Z,13.82
2022-10-22T04:37:50.562Z,13.83
2022-10-22T04:40:18.514Z,13.85
2022-10-22T04:42:46.416Z,13.82
2022-10-22T04:45:15.647Z,13.78
2022-10-22T04:47:45.265Z,13.70
2022-10-22T04:50:13.140Z,13.72
2022-10-22T04:52:41.123Z,13.73
2022-10-22T04:55:09.787Z,13.72
2022-10-22T04:57:37.811Z,13.71
2022-10-22T05:00:06.914Z,13.69
2022-10-22T05:02:34.815Z,13.64
2022-10-22T05:05:04.976Z,13.72
2022-10-22T05:07:33.008Z,13.70
2022-10-22T05:10:02.285Z,13.70
2022-10-22T05:12:30.981Z,13.68
2022-10-22T05:14:58.875Z,13.59
2022-10-22T05:17:27.256Z,13.62
2022-10-22T05:19:55.292Z,13.60
2022-10-22T05:22:24.556Z,13.63
2022-10-22T05:24:52.477Z,13.54
2022-10-22T05:27:20.426Z,13.54
2022-10-22T05:29:48.346Z,13.52
2022-10-22T05:32:16.393Z,13.55
2022-10-22T05:34:44.306Z,13.51
2022-10-22T05:37:12.236Z,13.55
2022-10-22T05:39:41.672Z,13.44
2022-10-22T05:42:09.572Z,13.43
2022-10-22T05:44:38.977Z,13.51
2022-10-22T05:47:07.108Z,13.51
2022-10-22T05:49:39.656Z,13.49
2022-10-22T05:52:07.677Z,13.51
2022-10-22T05:54:35.585Z,13.47
2022-10-22T05:57:05.185Z,13.43
2022-10-22T05:59:33.297Z,13.44
2022-10-22T06:02:01.590Z,13.59
2022-10-22T06:04:29.630Z,13.48
2022-10-22T06:06:57.582Z,13.49
2022-10-22T06:09:29.493Z,13.45
2022-10-22T06:11:58.646Z,13.47
2022-10-22T06:14:28.883Z,13.49
2022-10-22T06:17:02.427Z,13.49
2022-10-22T06:19:32.750Z,13.53
2022-10-22T06:22:02.727Z,13.55
2022-10-22T06:24:30.861Z,13.60
2022-10-22T06:26:58.739Z,13.55
2022-10-22T06:29:28.228Z,13.55
2022-10-22T06:31:56.133Z,13.54
2022-10-22T06:34:24.091Z,13.58
2022-10-22T06:36:58.165Z,13.58
2022-10-22T06:39:41.618Z,13.54
2022-10-22T06:42:11.168Z,13.58
2022-10-22T06:44:42.220Z,13.63
2022-10-22T06:47:10.144Z,13.65
2022-10-22T06:49:38.148Z,13.72
2022-10-22T06:52:06.443Z,13.72
2022-10-22T06:54:34.574Z,13.81
2022-10-22T06:57:02.489Z,13.78
2022-10-22T06:59:30.660Z,13.83
2022-10-22T07:01:59.973Z,13.89
2022-10-22T07:04:28.035Z,14.00
2022-10-22T07:06:56.464Z,14.04
2022-10-22T07:09:24.474Z,14.16
2022-10-22T07:11:52.427Z,14.31
2022-10-22T07:14:20.325Z,14.31
2022-10-22T07:16:48.323Z,14.44
2022-10-22T07:19:17.610Z,14.52
2022-10-22T07:21:46.078Z,14.61
2022-10-22T07:24:14.017Z,14.71
2022-10-22T07:26:41.868Z,14.72
2022-10-22T07:29:10.093Z,14.73
2022-10-22T07:31:37.911Z,14.75
2022-10-22T07:34:05.702Z,14.81
2022-10-22T07:36:34.986Z,14.78
2022-10-22T07:39:03.255Z,14.86
2022-10-22T07:41:31.725Z,14.85
2022-10-22T07:44:00.271Z,14.78
2022-10-22T07:46:28.544Z,14.98
2022-10-22T07:48:56.644Z,14.97
2022-10-22T07:51:24.578Z,15.11
2022-10-22T07:53:53.868Z,15.14
2022-10-22T07:56:21.870Z,15.10
2022-10-22T07:58:50.171Z,15.16
2022-10-22T08:01:18.527Z,15.28
2022-10-22T08:03:46.602Z,15.25
2022-10-22T08:06:15.761Z,15.23
2022-10-22T08:08:45.747Z,15.16
2022-10-22T08:11:15.447Z,15.17
2022-10-22T08:13:45.598Z,15.19
2022-10-22T08:16:14.880Z,15.24
2022-10-22T08:18:43.150Z,15.25
2022-10-22T08:21:11.424Z,15.28
2022-10-22T08:23:40.010Z,15.44
2022-10-22T08:26:08.080Z,15.59
2022-10-22T08:28:37.934Z,15.57
2022-10-22T08:31:07.475Z,15.47
2022-10-22T08:33:35.800Z,15.63
2022-10-22T08:36:03.816Z,15.75
2022-10-22T08:38:32.426Z,15.61
2022-10-22T08:41:08.822Z,15.69
2022-10-22T08:44:08.706Z,15.62
2022-10-22T08:46:53.149Z,15.56
2022-10-22T08:49:24.101Z,15.53
2022-10-22T08:51:52.486Z,15.65
2022-10-22T08:54:38.950Z,15.73
2022-10-22T08:57:23.837Z,15.64
2022-10-22T08:59:59.234Z,15.58
2022-10-22T09:02:41.614Z,15.77
2022-10-22T09:05:24.621Z,15.86
2022-10-22T09:07:53.120Z,15.78
2022-10-22T09:10:26.526Z,15.82
2022-10-22T09:12:54.546Z,15.91
2022-10-22T09:15:23.713Z,15.88
2022-10-22T09:18:03.862Z,15.80
2022-10-22T09:20:39.767Z,15.73
2022-10-22T09:23:24.568Z,15.98
2022-10-22T09:25:53.324Z,15.84
2022-10-22T09:28:21.476Z,15.86
2022-10-22T09:30:51.026Z,15.97
2022-10-22T09:33:23.986Z,16.06
2022-10-22T09:35:55.597Z,16.00
2022-10-22T09:38:27.201Z,15.99
2022-10-22T09:40:57.189Z,16.05
2022-10-22T09:43:25.914Z,16.00
2022-10-22T09:46:00.093Z,16.23
2022-10-22T09:48:32.066Z,16.09
2022-10-22T09:51:05.675Z,16.14
2022-10-22T09:53:40.513Z,16.25
2022-10-22T09:56:11.028Z,16.24
2022-10-22T09:58:46.569Z,16.14
2022-10-22T10:01:20.563Z,16.23
2022-10-22T10:03:49.989Z,16.24
2022-10-22T10:06:20.574Z,16.31
2022-10-22T10:08:49.347Z,16.29
2022-10-22T10:11:29.070Z,16.35
2022-10-22T10:14:08.745Z,16.35
2022-10-22T10:16:52.327Z,16.47
2022-10-22T10:19:44.203Z,16.58
2022-10-22T10:22:23.779Z,16.50
2022-10-22T10:25:13.662Z,16.41
2022-10-22T10:27:45.028Z,16.47
2022-10-22T10:30:17.182Z,16.48
2022-10-22T10:32:59.587Z,16.52
2022-10-22T10:35:31.396Z,16.60
2022-10-22T10:38:17.103Z,16.78
2022-10-22T10:40:51.423Z,16.84
2022-10-22T10:43:26.141Z,16.80
2022-10-22T10:46:03.318Z,16.78
2022-10-22T10:48:48.079Z,16.88
2022-10-22T10:51:30.407Z,16.92
2022-10-22T10:54:16.502Z,16.84
2022-10-22T10:56:48.409Z,16.95
2022-10-22T10:59:20.765Z,16.87
2022-10-22T11:02:00.652Z,16.95
2022-10-22T11:04:50.919Z,16.86
2022-10-22T11:07:34.211Z,17.00
2022-10-22T11:10:10.375Z,16.91
2022-10-22T11:12:43.529Z,16.87
2022-10-22T11:15:23.809Z,16.85
2022-10-22T11:17:54.119Z,16.84
2022-10-22T11:20:27.880Z,17.04
2022-10-22T11:23:18.846Z,17.00
2022-10-22T11:25:50.493Z,17.00
2022-10-22T11:28:25.682Z,16.95
2022-10-22T11:30:59.362Z,17.04
2022-10-22T11:33:33.895Z,17.05
2022-10-22T11:36:04.981Z,16.88
2022-10-22T11:38:35.766Z,16.82
2022-10-22T11:41:07.785Z,16.80
2022-10-22T11:43:52.522Z,16.98
2022-10-22T11:46:40.821Z,16.96
2022-10-22T11:49:23.253Z,16.97
2022-10-22T11:51:53.419Z,16.87
2022-10-22T11:54:42.313Z,16.91
2022-10-22T11:57:25.614Z,16.85
2022-10-22T11:59:57.852Z,16.92
2022-10-22T12:02:44.866Z,16.93
2022-10-22T12:05:43.976Z,16.97
2022-10-22T12:08:27.641Z,16.86
2022-10-22T12:11:07.312Z,16.89
2022-10-22T12:13:58.544Z,16.86
2022-10-22T12:16:44.094Z,16.99
2022-10-22T12:19:19.580Z,16.87
2022-10-22T12:21:51.040Z,16.78
2022-10-22T12:24:23.047Z,16.78
2022-10-22T12:26:52.675Z,16.89
2022-10-22T12:29:23.959Z,17.08
2022-10-22T12:31:51.939Z,17.20
2022-10-22T12:34:24.326Z,17.12
2022-10-22T12:36:53.635Z,16.98
2022-10-22T12:39:26.284Z,16.88
2022-10-22T12:41:55.253Z,16.96
2022-10-22T12:44:23.155Z,17.01
2022-10-22T12:46:54.612Z,17.21
2022-10-22T12:49:34.050Z,17.09
2022-10-22T12:52:04.173Z,17.12
2022-10-22T12:54:35.508Z,17.20
2022-10-22T12:57:03.590Z,17.18
2022-10-22T12:59:35.832Z,17.19
2022-10-22T13:02:11.302Z,17.08
2022-10-22T13:04:39.834Z,17.29
2022-10-22T13:07:21.283Z,17.27
2022-10-22T13:10:00.999Z,17.32
2022-10-22T13:12:36.340Z,17.28
2022-10-22T13:15:20.346Z,17.44
2022-10-22T13:17:49.526Z,17.33
2022-10-22T13:20:20.982Z,17.50
2022-10-22T13:22:58.386Z,17.54
2022-10-22T13:25:29.532Z,17.32
2022-10-22T13:27:59.569Z,17.38
2022-10-22T13:30:29.780Z,17.15
2022-10-22T13:33:00.102Z,17.22
2022-10-22T13:35:32.042Z,17.17
2022-10-22T13:38:00.748Z,17.14
2022-10-22T13:40:30.385Z,17.23
2022-10-22T13:42:58.290Z,17.22
2022-10-22T13:45:26.213Z,17.32
2022-10-22T13:47:57.033Z,17.23
2022-10-22T13:50:25.061Z,17.27
2022-10-22T13:52:55.462Z,17.33
2022-10-22T13:55:26.687Z,17.16
2022-10-22T13:57:57.364Z,17.18
2022-10-22T14:00:25.876Z,17.33
2022-10-22T14:02:58.181Z,17.18
2022-10-22T14:05:26.214Z,17.13
2022-10-22T14:07:54.579Z,17.05
2022-10-22T14:10:24.088Z,17.18
2022-10-22T14:12:53.554Z,17.07
2022-10-22T14:15:25.060Z,17.15
2022-10-22T14:17:57.334Z,17.07
2022-10-22T14:20:28.855Z,17.03
2022-10-22T14:22:57.658Z,17.00
2022-10-22T14:25:27.090Z,17.15
2022-10-22T14:27:56.524Z,16.97
2022-10-22T14:30:29.639Z,16.84
2022-10-22T14:33:01.911Z,16.86
2022-10-22T14:35:30.226Z,16.86
2022-10-22T14:37:58.829Z,16.85
2022-10-22T14:40:26.935Z,16.83
2022-10-22T14:42:55.117Z,16.83
2022-10-22T14:45:26.883Z,16.82
2022-10-22T14:48:00.403Z,16.85
2022-10-22T14:50:28.599Z,16.83
2022-10-22T14:52:59.799Z,16.83
2022-10-22T14:55:29.067Z,16.92
2022-10-22T14:57:58.005Z,16.92
2022-10-22T15:00:27.557Z,16.84
2022-10-22T15:03:06.813Z,16.85
2022-10-22T15:05:36.312Z,16.87
2022-10-22T15:08:04.813Z,16.91
2022-10-22T15:10:32.949Z,16.92
2022-10-22T15:13:01.027Z,16.87
2022-10-22T15:15:34.083Z,16.89
2022-10-22T15:18:05.914Z,16.89
2022-10-22T15:20:36.394Z,17.08
2022-10-22T15:23:04.690Z,16.99
2022-10-22T15:25:33.148Z,16.98
2022-10-22T15:28:09.219Z,17.02
2022-10-22T15:30:39.253Z,16.89
2022-10-22T15:33:07.287Z,16.88
2022-10-22T15:35:35.413Z,16.86
2022-10-22T15:38:09.201Z,16.74
2022-10-22T15:40:38.685Z,16.74
2022-10-22T15:43:06.713Z,16.60
2022-10-22T15:45:34.741Z,16.57
2022-10-22T15:48:04.228Z,16.55
2022-10-22T15:50:32.677Z,16.43
2022-10-22T15:53:00.579Z,16.39
2022-10-22T15:55:30.721Z,16.29
2022-10-22T15:58:01.831Z,16.27
2022-10-22T16:00:31.618Z,16.17
2022-10-22T16:02:59.853Z,16.12
2022-10-22T16:05:29.616Z,16.05
2022-10-22T16:07:57.643Z,16.03
2022-10-22T16:10:25.518Z,15.95
2022-10-22T16:12:54.608Z,15.89
2022-10-22T16:15:22.517Z,15.84
2022-10-22T16:17:53.722Z,15.79
2022-10-22T16:20:23.670Z,15.73
2022-10-22T16:22:53.097Z,15.69
2022-10-22T16:25:20.988Z,15.61
2022-10-22T16:27:50.792Z,15.56
2022-10-22T16:30:19.492Z,15.49
2022-10-22T16:32:47.509Z,15.39
2022-10-22T16:35:15.457Z,15.32
2022-10-22T16:37:43.693Z,15.27
2022-10-22T16:40:14.187Z,15.27
2022-10-22T16:42:44.057Z,15.21
2022-10-22T16:45:12.180Z,15.12
2022-10-22T16:47:42.877Z,15.03
2022-10-22T16:50:11.589Z,14.99
2022-10-22T16:52:39.865Z,14.95
2022-10-22T16:55:08.684Z,14.90
2022-10-22T16:57:38.127Z,14.83
2022-10-22T17:00:07.602Z,14.79
2022-10-22T17:02:37.312Z,14.71
2022-10-22T17:05:06.186Z,14.69
2022-10-22T17:07:34.399Z,14.63
2022-10-22T17:10:03.686Z,14.59
2022-10-22T17:12:35.196Z,14.51
2022-10-22T17:15:06.075Z,14.45
2022-10-22T17:17:34.321Z,14.42
2022-10-22T17:20:02.330Z,14.37
2022-10-22T17:22:30.514Z,14.29
2022-10-22T17:25:10.614Z,14.23
2022-10-22T17:27:39.427Z,14.20
2022-10-22T17:30:13.301Z,14.21
2022-10-22T17:32:41.305Z,14.16
2022-10-22T17:35:10.491Z,14.10
2022-10-22T17:37:45.935Z,14.12
2022-10-22T17:40:17.866Z,14.02
2022-10-22T17:42:46.694Z,14.01
2022-10-22T17:45:20.905Z,14.00
2022-10-22T17:47:51.036Z,13.96
2022-10-22T17:50:30.311Z,13.96
2022-10-22T17:53:02.680Z,13.88
2022-10-22T17:55:32.775Z,13.90
2022-10-22T17:58:01.441Z,13.89
2022-10-22T18:00:33.440Z,13.89
2022-10-22T18:03:12.261Z,14.03
2022-10-22T18:05:42.909Z,13.96
2022-10-22T18:08:12.565Z,13.92
2022-10-22T18:10:43.053Z,13.88
2022-10-22T18:13:16.559Z,13.95
2022-10-22T18:15:58.280Z,13.84
2022-10-22T18:18:26.583Z,13.84
2022-10-22T18:20:57.148Z,13.83
2022-10-22T18:23:29.437Z,13.72
2022-10-22T18:26:08.602Z,13.72
2022-10-22T18:28:39.458Z,13.70
2022-10-22T18:31:12.184Z,13.69
2022-10-22T18:33:45.576Z,13.63
2022-10-22T18:36:28.057Z,13.63
2022-10-22T18:39:01.608Z,13.59
2022-10-22T18:41:35.942Z,13.58
2022-10-22T18:44:06.987Z,13.53
2022-10-22T18:46:38.440Z,13.52
2022-10-22T18:49:08.149Z,13.57
2022-10-22T18:51:38.463Z,13.57
2022-10-22T18:54:25.814Z,13.54
2022-10-22T18:56:56.283Z,13.50
2022-10-22T18:59:32.762Z,13.48
2022-10-22T19:02:06.338Z,13.44
2022-10-22T19:04:38.354Z,13.46
2022-10-22T19:09:43.704Z,13.43
2022-10-22T19:12:15.854Z,13.39
2022-10-22T19:14:43.908Z,13.41
2022-10-22T19:17:13.774Z,13.39
2022-10-22T19:19:45.901Z,13.38
2022-10-22T19:22:14.144Z,13.37
2022-10-22T19:24:46.449Z,13.25
2022-10-22T19:27:14.783Z,13.29
2022-10-22T19:29:45.811Z,13.25
2022-10-22T19:32:20.102Z,13.28
2022-10-22T19:34:51.804Z,13.24
2022-10-22T19:37:20.228Z,13.23
2022-10-22T19:39:56.951Z,13.24
2022-10-22T19:42:32.802Z,13.30
2022-10-22T19:45:10.982Z,13.26
2022-10-22T19:47:44.788Z,13.27
2022-10-22T19:50:13.138Z,13.25
2022-10-22T19:52:41.876Z,13.23
2022-10-22T19:55:12.559Z,13.15
2022-10-22T19:58:11.672Z,13.14
2022-10-22T20:00:46.942Z,13.13
2022-10-22T20:03:24.016Z,13.08
2022-10-22T20:05:54.304Z,13.13
2022-10-22T20:08:24.696Z,13.10
2022-10-22T20:10:57.046Z,13.08
2022-10-22T20:13:25.206Z,13.09
2022-10-22T20:15:53.741Z,13.02
2022-10-22T20:18:26.068Z,13.01
2022-10-22T20:20:54.645Z,13.02
2022-10-22T20:23:24.674Z,12.97
2022-10-22T20:25:54.872Z,12.94
2022-10-22T20:28:23.836Z,13.02
2022-10-22T20:30:55.739Z,12.97
2022-10-22T20:33:27.881Z,13.01
2022-10-22T20:36:01.773Z,13.06
2022-10-22T20:38:32.672Z,12.96
2022-10-22T20:41:11.327Z,12.99
2022-10-22T20:43:39.391Z,12.90
2022-10-22T20:46:07.522Z,12.94
2022-10-22T20:48:39.282Z,13.02
2022-10-22T20:51:07.655Z,13.02
2022-10-22T20:53:35.674Z,12.99
2022-10-22T20:56:04.215Z,13.01
2022-10-22T20:58:33.010Z,13.03
2022-10-22T21:01:09.389Z,13.07
2022-10-22T21:03:39.125Z,13.12
2022-10-22T21:06:07.382Z,13.15
2022-10-22T21:08:35.319Z,13.18
2022-10-22T21:11:03.301Z,13.31
2022-10-22T21:13:33.016Z,13.36
2022-10-22T21:16:01.050Z,13.42
2022-10-22T21:18:28.974Z,13.48
2022-10-22T21:20:58.289Z,13.44
2022-10-22T21:23:26.404Z,13.41
2022-10-22T21:25:55.606Z,13.48
2022-10-22T21:28:23.758Z,13.44
2022-10-22T21:30:51.728Z,13.58
2022-10-22T21:33:19.797Z,13.56
2022-10-22T21:35:52.523Z,13.51
2022-10-22T21:38:23.314Z,13.47
2022-10-22T21:40:51.957Z,13.48
2022-10-22T21:43:19.909Z,13.47
2022-10-22T21:45:47.823Z,13.50
2022-10-22T21:48:18.259Z,13.54
2022-10-22T21:50:46.476Z,13.47
2022-10-22T21:53:14.359Z,13.51
2022-10-22T21:55:43.729Z,13.57
2022-10-22T21:58:11.727Z,13.53
2022-10-22T22:00:39.748Z,13.61
2022-10-22T22:03:08.627Z,13.58
2022-10-22T22:05:37.028Z,13.57
2022-10-22T22:08:05.217Z,13.70
2022-10-22T22:10:33.345Z,13.56
2022-10-22T22:13:02.707Z,13.57
2022-10-22T22:15:31.616Z,13.56
2022-10-22T22:17:59.564Z,13.56
2022-10-22T22:20:27.526Z,13.65
2022-10-22T22:22:55.390Z,13.64
2022-10-22T22:25:23.367Z,13.62
2022-10-22T22:27:51.306Z,13.55
2022-10-22T22:30:20.622Z,13.56
2022-10-22T22:32:48.493Z,13.64
2022-10-22T22:35:16.581Z,13.63
2022-10-22T22:37:44.615Z,13.63
2022-10-22T22:40:13.512Z,13.62
2022-10-22T22:42:41.428Z,13.56
2022-10-22T22:45:09.775Z,13.50
2022-10-22T22:47:40.412Z,13.49
2022-10-22T22:50:09.297Z,13.52
2022-10-22T22:52:37.211Z,13.54
2022-10-22T22:55:06.045Z,13.50
2022-10-22T22:57:34.023Z,13.48
2022-10-22T23:00:01.934Z,13.42
2022-10-22T23:02:29.789Z,13.53
2022-10-22T23:04:59.098Z,13.58
2022-10-22T23:07:29.438Z,13.55
2022-10-22T23:09:57.349Z,13.53
2022-10-22T23:12:25.237Z,13.48
2022-10-22T23:14:53.439Z,13.50
2022-10-22T23:17:21.390Z,13.49
2022-10-22T23:19:49.278Z,13.42
2022-10-22T23:22:18.525Z,13.47
2022-10-22T23:24:46.384Z,13.47
2022-10-22T23:27:14.314Z,13.43
2022-10-22T23:29:42.243Z,13.49
2022-10-22T23:32:15.259Z,13.54
2022-10-22T23:34:43.357Z,13.51
2022-10-22T23:37:12.996Z,13.42
2022-10-22T23:39:42.278Z,13.44
2022-10-22T23:42:10.263Z,13.41
2022-10-22T23:44:38.168Z,13.41
2022-10-22T23:47:06.198Z,13.44
2022-10-22T23:49:34.170Z,13.41
2022-10-22T23:52:02.141Z,13.39
2022-10-22T23:54:30.072Z,13.40
2022-10-22T23:56:59.354Z,13.38
2022-10-22T23:59:27.410Z,13.26
